createdAt,value
2018-11-25T00:01:07.027Z,75.66
2018-11-25T00:06:09.813Z,75.42
2018-11-25T00:11:12.446Z,75.56
2018-11-25T00:16:15.108Z,75.33
2018-11-25T00:21:17.698Z,75.81
2018-11-25T00:26:20.286Z,75.16
2018-11-25T00:31:22.876Z,75.82
2018-11-25T00:36:25.475Z,76.18
2018-11-25T00:41:28.114Z,75.83
2018-11-25T00:46:30.713Z,75.74
2018-11-25T00:51:33.351Z,75.65
2018-11-25T00:56:35.942Z,75.92
2018-11-25T01:01:38.598Z,75.82
2018-11-25T01:06:41.162Z,75.81
2018-11-25T01:11:43.774Z,75.65
2018-11-25T01:16:46.372Z,75.83
2018-11-25T01:21:48.990Z,75.70
2018-11-25T01:26:51.558Z,75.74
2018-11-25T01:31:54.155Z,75.50
2018-11-25T01:36:56.746Z,75.51
2018-11-25T01:41:59.346Z,75.35
2018-11-25T01:47:01.935Z,75.58
2018-11-25T01:52:04.708Z,75.46
2018-11-25T01:57:07.625Z,75.31
2018-11-25T02:02:10.342Z,75.43
2018-11-25T02:07:12.898Z,75.49
2018-11-25T02:12:15.473Z,75.70
2018-11-25T02:17:18.031Z,75.48
2018-11-25T02:22:20.605Z,75.70
2018-11-25T02:27:23.200Z,75.74
2018-11-25T02:32:25.853Z,75.42
2018-11-25T02:37:28.423Z,75.82
2018-11-25T02:42:30.990Z,75.86
2018-11-25T02:47:33.624Z,75.88
2018-11-25T02:52:36.217Z,75.66
2018-11-25T02:57:38.914Z,75.51
2018-11-25T03:02:41.546Z,75.84
2018-11-25T03:07:44.162Z,75.96
2018-11-25T03:12:46.715Z,76.03
2018-11-25T03:17:49.290Z,75.88
2018-11-25T03:22:51.891Z,75.47
2018-11-25T03:27:54.474Z,75.66
2018-11-25T03:32:57.070Z,76.18
2018-11-25T03:37:59.692Z,75.80
2018-11-25T03:43:02.340Z,76.17
2018-11-25T03:48:04.975Z,76.39
2018-11-25T03:53:07.626Z,76.30
2018-11-25T03:58:10.231Z,76.23
2018-11-25T04:03:12.836Z,76.27
2018-11-25T04:08:15.431Z,76.07
2018-11-25T04:13:18.044Z,76.40
2018-11-25T04:18:20.610Z,76.17
2018-11-25T04:23:23.226Z,76.49
2018-11-25T04:28:25.827Z,76.38
2018-11-25T04:33:28.456Z,76.60
2018-11-25T04:38:31.106Z,76.27
2018-11-25T04:43:33.742Z,75.90
2018-11-25T04:48:36.349Z,76.24
2018-11-25T04:53:38.946Z,76.15
2018-11-25T04:58:41.550Z,76.04
2018-11-25T05:03:44.246Z,76.42
2018-11-25T05:08:46.833Z,76.39
2018-11-25T05:13:49.499Z,76.26
2018-11-25T05:18:52.139Z,75.92
2018-11-25T05:23:54.725Z,76.08
2018-11-25T05:28:57.304Z,76.03
2018-11-25T05:33:59.914Z,75.95
2018-11-25T05:39:03.174Z,76.12
2018-11-25T05:44:05.809Z,76.33
2018-11-25T05:49:08.423Z,76.09
2018-11-25T05:54:11.235Z,75.99
2018-11-25T05:59:13.878Z,75.95
2018-11-25T06:04:16.494Z,76.36
2018-11-25T06:09:19.086Z,76.03
2018-11-25T06:14:21.691Z,76.17
2018-11-25T06:19:24.302Z,76.08
2018-11-25T06:24:26.867Z,76.10
2018-11-25T06:29:29.463Z,76.27
2018-11-25T06:34:32.035Z,76.34
2018-11-25T06:39:34.696Z,76.22
2018-11-25T06:44:37.410Z,76.00
2018-11-25T06:49:39.961Z,76.12
2018-11-25T06:54:42.571Z,76.03
2018-11-25T06:59:45.318Z,76.37
2018-11-25T07:04:47.923Z,76.29
2018-11-25T07:09:50.504Z,76.58
2018-11-25T07:14:54.231Z,76.51
2018-11-25T07:19:56.859Z,76.63
2018-11-25T07:24:59.559Z,76.62
2018-11-25T07:30:07.643Z,76.48
2018-11-25T07:35:06.860Z,76.11
2018-11-25T07:40:15.900Z,76.46
2018-11-25T07:45:20.858Z,76.67
2018-11-25T07:50:23.468Z,76.49
2018-11-25T07:55:26.034Z,76.41
2018-11-25T08:00:28.632Z,76.48
2018-11-25T08:05:31.243Z,76.75
2018-11-25T08:10:33.927Z,76.56
2018-11-25T08:15:36.632Z,76.21
2018-11-25T08:20:39.210Z,76.42
2018-11-25T08:25:41.832Z,76.28
2018-11-25T08:30:44.394Z,76.31
2018-11-25T08:35:47.521Z,76.35
2018-11-25T08:40:50.337Z,76.38
2018-11-25T08:45:52.989Z,76.17
2018-11-25T08:50:55.630Z,76.38
2018-11-25T08:55:58.290Z,76.13
2018-11-25T09:01:00.954Z,76.22
2018-11-25T09:06:03.642Z,76.31
2018-11-25T09:11:06.207Z,76.10
2018-11-25T09:16:09.851Z,76.31
2018-11-25T09:21:12.371Z,76.25
2018-11-25T09:26:14.986Z,76.18
2018-11-25T09:31:17.518Z,75.98
2018-11-25T09:36:20.130Z,75.91
2018-11-25T09:41:22.711Z,76.01
2018-11-25T09:46:25.347Z,75.84
2018-11-25T09:51:27.989Z,75.99
2018-11-25T09:56:30.566Z,75.35
2018-11-25T10:01:33.198Z,75.41
2018-11-25T10:06:35.783Z,75.50
2018-11-25T10:11:38.401Z,75.26
2018-11-25T10:16:41.030Z,75.31
2018-11-25T10:21:43.596Z,75.25
2018-11-25T10:26:46.199Z,75.25
2018-11-25T10:31:48.766Z,75.16
2018-11-25T10:36:52.411Z,75.12
2018-11-25T10:41:54.996Z,74.98
2018-11-25T10:46:57.663Z,74.63
2018-11-25T10:52:00.306Z,74.84
2018-11-25T10:57:02.920Z,74.67
2018-11-25T11:03:08.900Z,74.61
2018-11-25T11:08:11.524Z,74.40
2018-11-25T11:13:14.077Z,74.54
2018-11-25T11:18:16.656Z,74.14
2018-11-25T11:23:19.296Z,73.99
2018-11-25T11:28:22.036Z,73.76
2018-11-25T11:33:25.235Z,74.04
2018-11-25T11:38:27.905Z,73.74
2018-11-25T11:43:30.495Z,74.02
2018-11-25T11:48:33.170Z,73.80
2018-11-25T11:53:35.742Z,73.72
2018-11-25T11:58:38.312Z,73.82
2018-11-25T12:03:41.018Z,73.87
2018-11-25T12:08:43.692Z,73.80
2018-11-25T12:13:46.275Z,73.58
2018-11-25T12:18:48.963Z,73.56
2018-11-25T12:23:51.635Z,73.59
2018-11-25T12:28:54.218Z,73.64
2018-11-25T12:33:56.891Z,73.40
2018-11-25T12:38:59.710Z,73.69
2018-11-25T12:44:02.782Z,73.35
2018-11-25T12:49:05.405Z,73.67
2018-11-25T12:54:08.297Z,73.59
2018-11-25T12:59:10.866Z,73.70
2018-11-25T13:04:13.499Z,73.60
2018-11-25T13:09:16.126Z,73.62
2018-11-25T13:14:18.660Z,73.77
2018-11-25T13:19:21.421Z,73.94
2018-11-25T13:24:24.091Z,73.84
2018-11-25T13:29:27.824Z,73.58
2018-11-25T13:34:30.712Z,74.02
2018-11-25T13:39:33.839Z,74.10
2018-11-25T13:44:41.447Z,73.86
2018-11-25T13:49:44.153Z,73.90
2018-11-25T13:54:47.077Z,74.05
2018-11-25T13:59:50.056Z,73.81
2018-11-25T14:04:52.950Z,73.85
2018-11-25T14:09:55.677Z,73.89
2018-11-25T14:14:58.512Z,73.61
2018-11-25T14:20:01.922Z,73.96
2018-11-25T14:25:08.930Z,73.97
2018-11-25T14:30:16.268Z,74.13
2018-11-25T14:35:18.978Z,74.17
2018-11-25T14:40:21.604Z,74.24
2018-11-25T14:45:24.203Z,74.15
2018-11-25T14:50:26.945Z,74.39
2018-11-25T14:55:29.562Z,74.35
2018-11-25T15:00:32.242Z,74.60
2018-11-25T15:05:39.266Z,74.32
2018-11-25T15:10:41.854Z,74.29
2018-11-25T15:15:44.446Z,74.59
2018-11-25T15:20:47.042Z,74.27
2018-11-25T15:25:53.019Z,74.61
2018-11-25T15:30:55.614Z,74.70
2018-11-25T15:35:58.278Z,74.50
2018-11-25T15:41:01.015Z,74.46
2018-11-25T15:46:03.703Z,74.35
2018-11-25T15:51:06.299Z,74.55
2018-11-25T15:56:09.603Z,74.78
2018-11-25T16:01:12.447Z,74.55
2018-11-25T16:06:24.733Z,74.32
2018-11-25T16:11:27.352Z,74.60
2018-11-25T16:16:30.291Z,74.50
2018-11-25T16:21:32.987Z,74.58
2018-11-25T16:26:37.306Z,74.75
2018-11-25T16:31:39.952Z,74.87
2018-11-25T16:36:42.568Z,74.56
2018-11-25T16:41:45.248Z,74.90
2018-11-25T16:46:47.827Z,74.66
2018-11-25T16:51:50.455Z,74.73
2018-11-25T16:56:53.162Z,74.90
2018-11-25T17:01:55.802Z,74.75
2018-11-25T17:06:58.525Z,74.75
2018-11-25T17:12:01.148Z,75.37
2018-11-25T17:17:03.742Z,75.18
2018-11-25T17:22:06.347Z,75.41
2018-11-25T17:27:09.016Z,75.10
2018-11-25T17:32:11.895Z,75.29
2018-11-25T17:37:14.464Z,75.12
2018-11-25T17:42:17.092Z,75.25
2018-11-25T17:47:19.666Z,75.34
2018-11-25T17:52:22.351Z,75.26
2018-11-25T17:57:24.849Z,75.20
2018-11-25T18:02:27.399Z,75.65
2018-11-25T18:07:30.003Z,75.29
2018-11-25T18:12:33.511Z,75.34
2018-11-25T18:17:36.058Z,75.21
2018-11-25T18:22:44.140Z,75.10
2018-11-25T18:27:48.060Z,75.16
2018-11-25T18:32:50.630Z,75.07
2018-11-25T18:37:53.218Z,75.30
2018-11-25T18:42:55.825Z,75.23
2018-11-25T18:47:58.836Z,75.13
2018-11-25T18:53:01.426Z,75.10
2018-11-25T18:58:04.037Z,74.85
2018-11-25T19:03:06.687Z,74.77
2018-11-25T19:08:09.229Z,74.87
2018-11-25T19:13:11.842Z,75.11
2018-11-25T19:18:14.840Z,75.08
2018-11-25T19:23:17.844Z,75.43
2018-11-25T19:28:20.950Z,75.00
2018-11-25T19:33:23.956Z,74.95
2018-11-25T19:38:27.059Z,74.58
2018-11-25T19:43:30.086Z,74.26
2018-11-25T19:48:33.066Z,74.73
2018-11-25T19:58:59.152Z,74.87
2018-11-25T20:04:02.148Z,74.93
2018-11-25T20:09:09.054Z,74.84
2018-11-25T20:14:12.251Z,74.96
2018-11-25T20:19:15.255Z,74.78
2018-11-25T20:24:17.952Z,74.81
2018-11-25T20:29:20.591Z,74.86
2018-11-25T20:34:23.281Z,74.80
2018-11-25T20:39:31.584Z,74.32
2018-11-25T20:44:34.238Z,74.76
2018-11-25T20:49:36.823Z,74.28
2018-11-25T20:54:39.386Z,74.42
2018-11-25T20:59:42.029Z,74.45
2018-11-25T21:04:44.768Z,74.36
2018-11-25T21:09:47.364Z,74.13
2018-11-25T21:14:49.930Z,73.92
2018-11-25T21:19:52.524Z,73.76
2018-11-25T21:24:55.198Z,73.48
2018-11-25T21:29:57.772Z,73.46
2018-11-25T21:35:00.347Z,73.38
2018-11-25T21:40:06.163Z,72.98
2018-11-25T21:45:10.916Z,72.97
2018-11-25T21:50:20.652Z,72.59
2018-11-25T21:55:24.078Z,72.45
2018-11-25T22:00:26.647Z,72.19
2018-11-25T22:05:29.233Z,71.88
2018-11-25T22:10:31.805Z,71.40
2018-11-25T22:15:34.431Z,71.89
2018-11-25T22:20:37.063Z,71.66
2018-11-25T22:25:39.626Z,71.22
2018-11-25T22:30:42.310Z,71.06
2018-11-25T22:35:44.964Z,70.73
2018-11-25T22:40:47.510Z,70.67
2018-11-25T22:45:50.114Z,70.80
2018-11-25T22:50:52.735Z,70.54
2018-11-25T22:55:55.435Z,70.45
2018-11-25T23:00:58.071Z,70.20
2018-11-25T23:06:18.316Z,70.24
2018-11-25T23:11:20.896Z,69.96
2018-11-25T23:16:23.458Z,69.67
2018-11-25T23:21:26.058Z,69.84
2018-11-25T23:26:28.656Z,69.73
2018-11-25T23:31:31.219Z,69.97
2018-11-25T23:36:34.410Z,70.08
2018-11-25T23:41:37.719Z,69.74
2018-11-25T23:46:40.316Z,69.78
2018-11-25T23:51:43.805Z,69.59
2018-11-25T23:56:45.482Z,69.68
